Date,TemperatureHighF,TemperatureAvgF,TemperatureLowF,DewpointHighF,DewpointAvgF,DewpointLowF,HumidityHigh,HumidityAvg,HumidityLow,PressureMaxIn,PressureMinIn,WindSpeedMaxMPH,WindSpeedAvgMPH,GustSpeedMaxMPH,PrecipitationSumIn
2013-3-1,90,66,46,43,34,28,57,33,18,30.32,30.12,10,3,0,0.00
2013-3-2,84,65,50,46,38,29,71,39,25,30.21,30.04,11,2,0,0.00
2013-3-3,71,57,47,52,47,42,89,71,50,30.11,29.94,9,2,0,0.00
2013-3-4,69,52,41,57,46,39,94,81,62,30.10,30.01,8,2,0,0.00
2013-3-5,67,52,42,57,47,40,94,84,67,30.14,30.00,12,2,0,0.00
2013-3-6,58,51,42,49,46,40,93,83,70,30.16,30.00,5,1,0,0.00
2013-3-7,61,53,48,52,47,43,95,82,59,30.02,29.83,9,2,0,0.40
2013-3-8,60,50,43,50,45,42,95,83,67,30.02,29.78,7,2,0,0.60
2013-3-9,65,51,38,54,44,37,96,79,54,30.22,30.03,7,2,0,0.10
2013-3-10,80,56,38,53,42,34,88,64,36,30.26,30.15,9,2,0,0.00
2013-3-11,73,56,40,50,42,34,84,63,42,30.19,30.04,10,3,0,0.00
2013-3-12,74,56,41,56,46,37,87,69,47,30.09,29.98,8,2,0,0.00
2013-3-13,77,59,44,59,48,39,86,68,47,30.11,30.00,8,2,0,0.00
2013-3-14,74,57,42,58,49,39,92,74,53,30.08,29.97,8,2,0,0.00
2013-3-15,71,56,49,60,51,46,95,84,68,30.02,29.89,11,2,0,0.00
2013-3-16,63,54,48,56,51,45,96,89,75,29.97,29.84,7,2,0,0.00
2013-3-17,113,53,43,100,48,42,95,86,67,29.99,29.88,8,2,0,0.00
2013-3-18,65,52,43,58,48,42,96,87,72,30.09,29.97,12,2,0,0.00
2013-3-19,68,55,44,59,50,42,96,84,67,30.12,30.02,11,2,0,0.00
2013-3-20,69,57,30,60,52,29,96,83,67,30.09,29.93,9,2,0,0.00
2013-3-21,71,56,45,59,50,43,95,80,63,29.95,29.76,9,3,0,0.00
2013-3-22,73,56,40,56,47,38,94,74,48,29.89,29.78,9,2,0,0.00
2013-3-23,74,54,37,52,44,30,91,70,43,29.99,29.88,8,2,0,0.00
2013-3-24,74,56,39,56,47,38,93,75,53,30.02,29.87,11,2,0,0.00
2013-3-25,72,55,40,57,48,38,91,77,59,29.97,29.88,8,2,0,0.00
2013-3-26,69,55,42,58,49,40,95,81,64,29.97,29.89,9,2,0,0.00
2013-3-27,70,56,45,58,50,43,95,81,64,30.03,29.93,9,2,0,0.00
2013-3-28,70,55,46,59,50,44,95,85,66,30.09,29.98,10,2,0,0.00
2013-3-29,71,57,45,61,52,44,96,85,68,30.11,30.02,9,2,0,0.00
2013-3-30,71,59,53,60,53,50,93,82,65,30.12,30.02,10,3,0,0.00
2013-3-31,67,58,53,59,54,51,91,86,73,30.11,30.03,8,2,0,0.02